Time;durP1;ratioP1;P1;durP2;ratioP2;P2;SDS_P1;SDS_P2;PMS_P1;PMS_P2;Temp;Humidity;BMP_temperature;BMP_pressure;BME280_temperature;BME280_humidity;BME280_pressure;Samples;Min_cycle;Max_cycle;Signal;HPM_P1;HPM_P2
2022/10/27 00:00:43;;;;;;;0.98;0.98;;;;;;;;;;5104836;28;20235;-64
2022/10/27 00:03:11;;;;;;;1.05;0.95;;;;;;;;;;5104092;28;20245;-64
2022/10/27 00:05:39;;;;;;;2.22;1.23;;;;;;;;;;5104444;28;20269;-64
2022/10/27 00:08:07;;;;;;;1.08;1.00;;;;;;;;;;5104479;28;20204;-64
2022/10/27 00:10:35;;;;;;;1.13;0.90;;;;;;;;;;5104340;28;20222;-64
2022/10/27 00:13:04;;;;;;;1.20;1.10;;;;;;;;;;5104782;28;20203;-64
2022/10/27 00:15:32;;;;;;;0.90;0.90;;;;;;;;;;5103783;28;20684;-64
2022/10/27 00:18:02;;;;;;;0.80;0.80;;;;;;;;;;5104290;28;20268;-64
2022/10/27 00:20:31;;;;;;;0.90;0.90;;;;;;;;;;5104363;28;20502;-65
2022/10/27 00:22:58;;;;;;;0.80;0.80;;;;;;;;;;5104129;28;20206;-64
2022/10/27 00:25:26;;;;;;;1.20;1.10;;;;;;;;;;5104070;28;20226;-64
2022/10/27 00:27:54;;;;;;;2.45;2.25;;;;;;;;;;5104062;28;20656;-64
2022/10/27 00:30:21;;;;;;;3.10;2.50;;;;;;;;;;5104224;28;20203;-64
2022/10/27 00:32:49;;;;;;;2.00;1.80;;;;;;;;;;5104305;28;20640;-64
2022/10/27 00:35:19;;;;;;;1.88;1.70;;;;;;;;;;5104117;28;20302;-64
2022/10/27 00:37:47;;;;;;;2.20;2.00;;;;;;;;;;5104096;28;20246;-65
2022/10/27 00:40:15;;;;;;;2.95;1.60;;;;;;;;;;5103952;28;20203;-64
2022/10/27 00:42:43;;;;;;;2.00;1.80;;;;;;;;;;5103857;28;20231;-64
2022/10/27 00:45:11;;;;;;;2.17;1.45;;;;;;;;;;5104162;28;20294;-63
2022/10/27 00:47:39;;;;;;;1.70;1.60;;;;;;;;;;5103979;28;20289;-64
2022/10/27 00:50:09;;;;;;;1.83;1.73;;;;;;;;;;5103719;28;20291;-64
2022/10/27 00:52:40;;;;;;;1.92;1.77;;;;;;;;;;5103968;28;20231;-64
2022/10/27 00:55:11;;;;;;;1.60;1.50;;;;;;;;;;5099671;28;20424;-64
2022/10/27 00:57:39;;;;;;;1.50;1.40;;;;;;;;;;5100670;28;20223;-64
2022/10/27 01:00:08;;;;;;;2.40;1.40;;;;;;;;;;5100489;28;20204;-63
2022/10/27 01:02:36;;;;;;;1.52;1.42;;;;;;;;;;5100966;28;20581;-64
2022/10/27 01:05:06;;;;;;;1.38;1.27;;;;;;;;;;5100560;28;20207;-64
2022/10/27 01:07:34;;;;;;;1.98;1.40;;;;;;;;;;5100576;28;20210;-64
2022/10/27 01:10:04;;;;;;;1.45;1.33;;;;;;;;;;5100395;28;20207;-64
2022/10/27 01:12:33;;;;;;;1.40;1.30;;;;;;;;;;5100719;28;20619;-64
2022/10/27 01:15:00;;;;;;;1.20;1.10;;;;;;;;;;5100356;28;20353;-62
2022/10/27 01:17:37;;;;;;;1.48;1.30;;;;;;;;;;5100420;28;20602;-63
2022/10/27 01:20:17;;;;;;;1.38;1.27;;;;;;;;;;5100736;28;20211;-64
2022/10/27 01:22:48;;;;;;;1.58;1.23;;;;;;;;;;5100271;28;20227;-64
2022/10/27 01:25:28;;;;;;;1.30;1.20;;;;;;;;;;5100581;28;20298;-63
2022/10/27 01:28:17;;;;;;;1.20;1.10;;;;;;;;;;5100385;28;20219;-65
2022/10/27 01:31:02;;;;;;;1.27;1.17;;;;;;;;;;5100437;28;20211;-65
2022/10/27 01:33:34;;;;;;;1.20;1.10;;;;;;;;;;5100251;28;20652;-66
2022/10/27 01:36:04;;;;;;;2.00;1.30;;;;;;;;;;5100204;28;20662;-63
2022/10/27 01:38:33;;;;;;;1.02;0.95;;;;;;;;;;5100270;28;20207;-63
2022/10/27 01:41:02;;;;;;;1.30;1.20;;;;;;;;;;5099969;28;20298;-64
2022/10/27 01:43:31;;;;;;;1.30;1.20;;;;;;;;;;5099742;28;20298;-64
2022/10/27 01:46:00;;;;;;;0.90;0.90;;;;;;;;;;5099616;28;20208;-64
2022/10/27 01:48:28;;;;;;;1.20;1.10;;;;;;;;;;5099978;28;20243;-64
2022/10/27 01:50:57;;;;;;;0.90;0.90;;;;;;;;;;5099447;28;20214;-64
2022/10/27 01:53:25;;;;;;;1.30;1.20;;;;;;;;;;5099872;28;20195;-65
2022/10/27 01:56:00;;;;;;;0.90;0.90;;;;;;;;;;5099584;28;20269;-64
2022/10/27 01:58:37;;;;;;;1.00;1.00;;;;;;;;;;5098898;28;20211;-64
2022/10/27 02:01:18;;;;;;;0.90;0.90;;;;;;;;;;5099580;28;20214;-64
2022/10/27 02:03:48;;;;;;;0.93;0.82;;;;;;;;;;5099504;28;20477;-64
2022/10/27 02:06:22;;;;;;;1.55;1.13;;;;;;;;;;5099038;28;20211;-64
2022/10/27 02:08:53;;;;;;;0.90;0.90;;;;;;;;;;5099638;28;20212;-64
2022/10/27 02:11:20;;;;;;;1.15;1.05;;;;;;;;;;5099273;28;20204;-64
2022/10/27 02:13:48;;;;;;;1.13;1.00;;;;;;;;;;5098965;28;20294;-64
2022/10/27 02:16:21;;;;;;;0.80;0.80;;;;;;;;;;5098327;28;20622;-64
2022/10/27 02:18:50;;;;;;;1.08;1.00;;;;;;;;;;5098548;28;20196;-64
2022/10/27 02:21:20;;;;;;;0.90;0.90;;;;;;;;;;5098930;28;20533;-65
2022/10/27 02:23:48;;;;;;;0.95;0.95;;;;;;;;;;5099232;28;20571;-64
2022/10/27 02:26:19;;;;;;;0.80;0.80;;;;;;;;;;5098949;28;20226;-64
2022/10/27 02:28:49;;;;;;;1.00;0.90;;;;;;;;;;5098377;28;20463;-64
2022/10/27 02:31:18;;;;;;;0.80;0.80;;;;;;;;;;5098791;28;20212;-64
2022/10/27 02:33:46;;;;;;;0.80;0.80;;;;;;;;;;5098921;28;20248;-64
2022/10/27 02:36:14;;;;;;;0.90;0.90;;;;;;;;;;5099011;28;20306;-64
2022/10/27 02:38:43;;;;;;;0.75;0.75;;;;;;;;;;5098766;28;20246;-64
2022/10/27 02:41:11;;;;;;;0.70;0.70;;;;;;;;;;5099068;28;20230;-63
2022/10/27 02:43:39;;;;;;;0.88;0.88;;;;;;;;;;5098254;28;20231;-64
2022/10/27 02:46:07;;;;;;;0.80;0.80;;;;;;;;;;5098121;28;20655;-64
2022/10/27 02:48:34;;;;;;;1.15;0.70;;;;;;;;;;5098761;28;20640;-64
2022/10/27 02:51:02;;;;;;;0.60;0.60;;;;;;;;;;5098289;28;20596;-64
2022/10/27 02:53:30;;;;;;;0.73;0.73;;;;;;;;;;5098508;28;20199;-63
2022/10/27 02:55:59;;;;;;;0.93;0.93;;;;;;;;;;5097900;28;20291;-64
2022/10/27 02:58:27;;;;;;;0.70;0.70;;;;;;;;;;5098052;28;20296;-64
2022/10/27 03:00:55;;;;;;;0.80;0.80;;;;;;;;;;5098275;28;20253;-64
2022/10/27 03:03:23;;;;;;;1.77;1.02;;;;;;;;;;5098585;28;20262;-63
2022/10/27 03:05:50;;;;;;;0.75;0.73;;;;;;;;;;5097297;28;20229;-64
2022/10/27 03:08:18;;;;;;;0.73;0.73;;;;;;;;;;5097978;28;20208;-64
2022/10/27 03:10:46;;;;;;;0.70;0.70;;;;;;;;;;5097486;28;20298;-64
2022/10/27 03:13:15;;;;;;;0.70;0.70;;;;;;;;;;5098005;28;20203;-64
2022/10/27 03:15:44;;;;;;;0.70;0.70;;;;;;;;;;5097365;28;20259;-64
2022/10/27 03:18:12;;;;;;;0.70;0.70;;;;;;;;;;5097219;28;20298;-64
2022/10/27 03:20:40;;;;;;;0.90;0.90;;;;;;;;;;5097666;28;20227;-63
2022/10/27 03:23:08;;;;;;;0.82;0.70;;;;;;;;;;5097944;28;20615;-64
2022/10/27 03:25:42;;;;;;;0.60;0.60;;;;;;;;;;5097584;28;20622;-65
2022/10/27 03:28:09;;;;;;;0.90;0.90;;;;;;;;;;5097820;28;20211;-64
2022/10/27 03:30:39;;;;;;;0.73;0.73;;;;;;;;;;5097650;28;20206;-65
2022/10/27 03:33:07;;;;;;;0.57;0.57;;;;;;;;;;5097682;28;20207;-64
2022/10/27 03:35:34;;;;;;;0.60;0.60;;;;;;;;;;5097418;28;20629;-64
2022/10/27 03:38:02;;;;;;;0.70;0.70;;;;;;;;;;5097960;28;20282;-64
2022/10/27 03:40:30;;;;;;;0.70;0.70;;;;;;;;;;5097657;28;20229;-64
2022/10/27 03:42:58;;;;;;;0.77;0.60;;;;;;;;;;5097615;28;20224;-64
2022/10/27 03:45:26;;;;;;;0.73;0.73;;;;;;;;;;5096851;28;20586;-64
2022/10/27 03:48:03;;;;;;;0.60;0.60;;;;;;;;;;5097789;28;20204;-64
2022/10/27 03:50:30;;;;;;;0.80;0.70;;;;;;;;;;5097256;28;20624;-64
2022/10/27 03:52:58;;;;;;;0.70;0.70;;;;;;;;;;5097048;28;20203;-64
2022/10/27 03:55:26;;;;;;;0.60;0.60;;;;;;;;;;5096425;28;20212;-64
2022/10/27 03:57:54;;;;;;;0.70;0.70;;;;;;;;;;5097454;28;20211;-64
2022/10/27 04:00:22;;;;;;;0.65;0.65;;;;;;;;;;5096660;28;20207;-64
2022/10/27 04:02:49;;;;;;;0.60;0.60;;;;;;;;;;5096876;28;20242;-64
2022/10/27 04:05:19;;;;;;;0.60;0.60;;;;;;;;;;5096630;28;20282;-63
2022/10/27 04:07:47;;;;;;;0.70;0.70;;;;;;;;;;5096797;28;20660;-64
2022/10/27 04:10:14;;;;;;;1.00;0.90;;;;;;;;;;5097192;28;20303;-64
2022/10/27 04:12:48;;;;;;;0.80;0.80;;;;;;;;;;5097559;28;20264;-63
2022/10/27 04:15:16;;;;;;;0.80;0.80;;;;;;;;;;5096672;28;20591;-64
2022/10/27 04:17:43;;;;;;;0.60;0.60;;;;;;;;;;5097414;28;20204;-64
2022/10/27 04:20:11;;;;;;;0.70;0.70;;;;;;;;;;5097045;28;20207;-64
2022/10/27 04:22:40;;;;;;;0.70;0.70;;;;;;;;;;5097106;28;20317;-65
2022/10/27 04:25:08;;;;;;;0.60;0.60;;;;;;;;;;5096505;28;20253;-63
2022/10/27 04:27:35;;;;;;;0.70;0.70;;;;;;;;;;5096985;28;20212;-63
2022/10/27 04:30:03;;;;;;;0.90;0.75;;;;;;;;;;5098335;28;20204;-64
2022/10/27 04:32:30;;;;;;;0.70;0.70;;;;;;;;;;5100654;28;20250;-64
2022/10/27 04:34:58;;;;;;;0.73;0.73;;;;;;;;;;5100122;28;20315;-64
2022/10/27 04:37:25;;;;;;;0.68;0.68;;;;;;;;;;5100093;28;20266;-64
2022/10/27 04:39:54;;;;;;;0.70;0.70;;;;;;;;;;5099844;28;20225;-63
2022/10/27 04:42:21;;;;;;;0.70;0.70;;;;;;;;;;5099462;28;20306;-64
2022/10/27 04:44:49;;;;;;;0.80;0.80;;;;;;;;;;5099828;28;20291;-64
2022/10/27 04:47:16;;;;;;;0.73;0.73;;;;;;;;;;5099891;28;20208;-64
2022/10/27 04:49:44;;;;;;;0.63;0.63;;;;;;;;;;5098606;28;20247;-64
2022/10/27 04:52:11;;;;;;;0.60;0.60;;;;;;;;;;5099516;28;20635;-64
2022/10/27 04:54:39;;;;;;;0.88;0.88;;;;;;;;;;5098637;28;20221;-63
2022/10/27 04:57:08;;;;;;;0.70;0.70;;;;;;;;;;5099256;28;20294;-65
2022/10/27 04:59:35;;;;;;;0.70;0.70;;;;;;;;;;5099619;28;20208;-64
2022/10/27 05:02:03;;;;;;;0.70;0.70;;;;;;;;;;5099529;28;20203;-64
2022/10/27 05:04:30;;;;;;;0.73;0.73;;;;;;;;;;5098747;28;20298;-64
2022/10/27 05:06:58;;;;;;;0.70;0.70;;;;;;;;;;5098944;28;20290;-64
2022/10/27 05:09:25;;;;;;;0.70;0.70;;;;;;;;;;5099433;28;20298;-63
2022/10/27 05:11:53;;;;;;;0.90;0.90;;;;;;;;;;5099116;28;20207;-64
2022/10/27 05:14:22;;;;;;;0.75;0.75;;;;;;;;;;5099570;28;20200;-65
2022/10/27 05:16:49;;;;;;;0.80;0.80;;;;;;;;;;5099204;28;20354;-64
2022/10/27 05:19:18;;;;;;;0.85;0.70;;;;;;;;;;5098820;28;20303;-64
2022/10/27 05:21:45;;;;;;;0.80;0.80;;;;;;;;;;5098715;28;20299;-64
2022/10/27 05:24:13;;;;;;;0.88;0.88;;;;;;;;;;5098974;28;20259;-64
2022/10/27 05:26:41;;;;;;;1.02;0.68;;;;;;;;;;5098909;28;20714;-63
2022/10/27 05:29:08;;;;;;;0.88;0.70;;;;;;;;;;5098684;28;20305;-65
2022/10/27 05:31:37;;;;;;;0.77;0.77;;;;;;;;;;5098772;28;20287;-64
2022/10/27 05:34:05;;;;;;;0.80;0.80;;;;;;;;;;5098137;28;20671;-64
2022/10/27 05:36:32;;;;;;;0.70;0.70;;;;;;;;;;5097918;28;20303;-63
2022/10/27 05:39:00;;;;;;;1.35;0.70;;;;;;;;;;5098710;28;20203;-64
2022/10/27 05:41:27;;;;;;;0.80;0.80;;;;;;;;;;5096993;28;20204;-64
2022/10/27 05:43:55;;;;;;;0.88;0.88;;;;;;;;;;5098516;28;20220;-64
2022/10/27 05:46:22;;;;;;;0.80;0.80;;;;;;;;;;5097529;28;20299;-64
2022/10/27 05:48:51;;;;;;;0.80;0.80;;;;;;;;;;5097997;28;20646;-64
2022/10/27 05:51:18;;;;;;;1.00;1.00;;;;;;;;;;5097067;28;20309;-64
2022/10/27 05:53:49;;;;;;;0.77;0.77;;;;;;;;;;5098117;28;20299;-64
2022/10/27 05:56:17;;;;;;;0.77;0.77;;;;;;;;;;5096532;28;20207;-64
2022/10/27 05:58:44;;;;;;;0.90;0.90;;;;;;;;;;5097242;28;20485;-64
2022/10/27 06:01:11;;;;;;;0.70;0.70;;;;;;;;;;5097406;28;20203;-64
2022/10/27 06:03:39;;;;;;;0.80;0.80;;;;;;;;;;5096710;28;20647;-64
2022/10/27 06:06:08;;;;;;;0.88;0.88;;;;;;;;;;5097475;28;20243;-64
2022/10/27 06:08:35;;;;;;;0.80;0.80;;;;;;;;;;5097792;28;20203;-64
2022/10/27 06:11:03;;;;;;;0.90;0.90;;;;;;;;;;5097428;28;20311;-64
2022/10/27 06:13:30;;;;;;;1.02;0.73;;;;;;;;;;5096762;28;20318;-64
2022/10/27 06:15:59;;;;;;;0.95;0.90;;;;;;;;;;5097437;28;20789;-64
2022/10/27 06:18:26;;;;;;;1.05;0.80;;;;;;;;;;5097584;28;20294;-64
2022/10/27 06:20:54;;;;;;;1.35;0.90;;;;;;;;;;5097082;28;20255;-65
2022/10/27 06:23:22;;;;;;;1.00;1.00;;;;;;;;;;5096036;28;20602;-63
2022/10/27 06:25:50;;;;;;;0.73;0.73;;;;;;;;;;5097187;28;20214;-64
2022/10/27 06:28:17;;;;;;;0.90;0.90;;;;;;;;;;5097199;28;20239;-64
2022/10/27 06:30:45;;;;;;;0.80;0.80;;;;;;;;;;5097012;28;20237;-64
2022/10/27 06:33:13;;;;;;;0.80;0.80;;;;;;;;;;5096289;28;20781;-64
2022/10/27 06:35:40;;;;;;;1.05;1.05;;;;;;;;;;5096459;28;20639;-64
2022/10/27 06:38:08;;;;;;;0.80;0.80;;;;;;;;;;5096659;28;20261;-64
2022/10/27 06:40:37;;;;;;;1.13;0.73;;;;;;;;;;5096687;28;20207;-64
2022/10/27 06:43:05;;;;;;;1.10;1.00;;;;;;;;;;5095873;28;20215;-64
2022/10/27 06:45:32;;;;;;;0.80;0.80;;;;;;;;;;5096047;28;20235;-64
2022/10/27 06:48:01;;;;;;;0.80;0.80;;;;;;;;;;5095855;28;20302;-64
2022/10/27 06:50:28;;;;;;;0.90;0.90;;;;;;;;;;5096841;28;20204;-64
2022/10/27 06:52:56;;;;;;;0.90;0.90;;;;;;;;;;5095513;28;20265;-64
2022/10/27 06:55:23;;;;;;;1.02;0.93;;;;;;;;;;5096840;28;20591;-64
2022/10/27 06:57:52;;;;;;;0.88;0.80;;;;;;;;;;5096503;28;20675;-64
2022/10/27 07:00:20;;;;;;;0.90;0.90;;;;;;;;;;5096377;28;20210;-64
2022/10/27 07:02:48;;;;;;;1.00;0.90;;;;;;;;;;5096092;28;20670;-64
2022/10/27 07:05:15;;;;;;;1.20;1.00;;;;;;;;;;5096489;28;20258;-64
2022/10/27 07:07:47;;;;;;;1.33;0.90;;;;;;;;;;5096384;28;20203;-64
2022/10/27 07:10:15;;;;;;;1.00;0.90;;;;;;;;;;5096233;28;20204;-64
2022/10/27 07:12:53;;;;;;;0.80;0.80;;;;;;;;;;5095069;28;20192;-64
2022/10/27 07:15:21;;;;;;;1.02;0.90;;;;;;;;;;5095651;28;20235;-64
2022/10/27 07:17:48;;;;;;;0.90;0.90;;;;;;;;;;5095900;28;20286;-64
2022/10/27 07:20:15;;;;;;;0.90;0.90;;;;;;;;;;5096302;28;20302;-64
2022/10/27 07:22:43;;;;;;;0.82;0.82;;;;;;;;;;5095579;28;20274;-64
2022/10/27 07:25:11;;;;;;;0.80;0.80;;;;;;;;;;5096385;28;20200;-64
2022/10/27 07:27:38;;;;;;;1.13;1.02;;;;;;;;;;5095885;28;20199;-64
2022/10/27 07:30:08;;;;;;;0.90;0.90;;;;;;;;;;5096000;28;20455;-64
2022/10/27 07:32:35;;;;;;;1.00;1.00;;;;;;;;;;5095454;28;20203;-64
2022/10/27 07:35:03;;;;;;;0.90;0.90;;;;;;;;;;5095854;28;20688;-64
2022/10/27 07:37:30;;;;;;;1.00;1.00;;;;;;;;;;5095053;28;20306;-63
2022/10/27 07:39:58;;;;;;;1.15;0.93;;;;;;;;;;5094921;28;20245;-63
2022/10/27 07:42:26;;;;;;;0.90;0.90;;;;;;;;;;5094702;28;20203;-64
2022/10/27 07:44:54;;;;;;;1.00;0.90;;;;;;;;;;5094068;28;20247;-64
2022/10/27 07:47:23;;;;;;;1.10;1.00;;;;;;;;;;5095540;28;20268;-64
2022/10/27 07:49:50;;;;;;;0.90;0.90;;;;;;;;;;5094183;28;20231;-64
2022/10/27 07:52:18;;;;;;;0.80;0.80;;;;;;;;;;5094391;28;20239;-63
2022/10/27 07:54:45;;;;;;;0.80;0.80;;;;;;;;;;5095446;28;20294;-64
2022/10/27 07:57:12;;;;;;;1.10;1.00;;;;;;;;;;5095177;28;20574;-64
2022/10/27 07:59:41;;;;;;;1.00;1.00;;;;;;;;;;5094008;28;20632;-64
2022/10/27 08:02:12;;;;;;;1.08;1.00;;;;;;;;;;5095249;28;20278;-64
2022/10/27 08:04:41;;;;;;;0.80;0.80;;;;;;;;;;5098865;28;20308;-65
2022/10/27 08:07:09;;;;;;;1.00;0.90;;;;;;;;;;5099717;28;20294;-64
2022/10/27 08:09:37;;;;;;;0.98;0.90;;;;;;;;;;5099534;28;20305;-64
2022/10/27 08:12:04;;;;;;;0.90;0.90;;;;;;;;;;5099335;28;20196;-65
2022/10/27 08:14:32;;;;;;;0.90;0.90;;;;;;;;;;5099317;28;20314;-64
2022/10/27 08:16:59;;;;;;;0.90;0.90;;;;;;;;;;5098908;28;20633;-64
2022/10/27 08:19:27;;;;;;;1.20;1.10;;;;;;;;;;5099391;28;20295;-64
2022/10/27 08:21:56;;;;;;;0.80;0.80;;;;;;;;;;5099056;28;20311;-64
2022/10/27 08:24:23;;;;;;;1.10;1.05;;;;;;;;;;5099169;28;20711;-64
2022/10/27 08:26:51;;;;;;;1.08;0.90;;;;;;;;;;5098678;28;20337;-64
2022/10/27 08:29:18;;;;;;;0.90;0.90;;;;;;;;;;5099215;28;20291;-64
2022/10/27 08:31:45;;;;;;;0.80;0.80;;;;;;;;;;5098399;28;20287;-64
2022/10/27 08:34:13;;;;;;;1.05;0.90;;;;;;;;;;5098553;28;20246;-64
2022/10/27 08:36:41;;;;;;;0.93;0.93;;;;;;;;;;5098561;28;20203;-64
2022/10/27 08:39:10;;;;;;;1.10;1.00;;;;;;;;;;5098321;28;20234;-64
2022/10/27 08:41:39;;;;;;;1.10;1.00;;;;;;;;;;5098277;28;20314;-64
2022/10/27 08:44:19;;;;;;;1.10;1.00;;;;;;;;;;5097408;28;20281;-65
2022/10/27 08:46:48;;;;;;;1.00;0.90;;;;;;;;;;5098921;28;20243;-64
2022/10/27 08:49:23;;;;;;;1.10;1.00;;;;;;;;;;5097711;28;20220;-65
2022/10/27 08:51:52;;;;;;;1.05;0.95;;;;;;;;;;5097586;28;20203;-64
2022/10/27 08:54:22;;;;;;;1.23;0.90;;;;;;;;;;5098217;28;20235;-64
2022/10/27 08:56:50;;;;;;;1.20;1.02;;;;;;;;;;5098571;28;20302;-64
2022/10/27 08:59:20;;;;;;;1.83;1.10;;;;;;;;;;5098317;28;20234;-64
2022/10/27 09:01:51;;;;;;;1.20;1.00;;;;;;;;;;5097504;28;20690;-64
2022/10/27 09:04:27;;;;;;;1.75;1.10;;;;;;;;;;5097058;28;20223;-64
2022/10/27 09:07:08;;;;;;;0.80;0.80;;;;;;;;;;5097658;28;20233;-64
2022/10/27 09:09:42;;;;;;;1.15;1.00;;;;;;;;;;5096948;28;20765;-65
2022/10/27 09:12:15;;;;;;;1.10;1.00;;;;;;;;;;5097456;28;20591;-65
2022/10/27 09:14:51;;;;;;;1.17;0.93;;;;;;;;;;5096432;28;20223;-65
2022/10/27 09:17:22;;;;;;;1.30;0.90;;;;;;;;;;5097321;28;20549;-64
2022/10/27 09:19:51;;;;;;;1.63;1.10;;;;;;;;;;5097249;28;20683;-64
2022/10/27 09:22:20;;;;;;;0.85;0.80;;;;;;;;;;5097249;28;20275;-64
2022/10/27 09:24:53;;;;;;;2.05;1.00;;;;;;;;;;5096587;28;20284;-64
2022/10/27 09:27:21;;;;;;;2.78;1.30;;;;;;;;;;5096468;28;20303;-65
2022/10/27 09:29:51;;;;;;;1.42;1.10;;;;;;;;;;5097300;28;20242;-64
2022/10/27 09:32:20;;;;;;;2.45;0.95;;;;;;;;;;5097271;28;20298;-65
2022/10/27 09:34:52;;;;;;;1.95;1.02;;;;;;;;;;5097271;28;20773;-65
2022/10/27 09:37:20;;;;;;;1.27;1.10;;;;;;;;;;5097093;28;20203;-64
2022/10/27 09:39:50;;;;;;;1.98;1.08;;;;;;;;;;5096691;28;20199;-65
2022/10/27 09:42:18;;;;;;;1.17;1.00;;;;;;;;;;5095271;28;20278;-65
2022/10/27 09:44:47;;;;;;;1.95;0.95;;;;;;;;;;5094757;28;20311;-65
2022/10/27 09:47:14;;;;;;;2.28;1.17;;;;;;;;;;5095903;28;20203;-65
2022/10/27 09:49:44;;;;;;;1.30;1.15;;;;;;;;;;5096503;28;20291;-65
2022/10/27 09:52:12;;;;;;;1.35;1.25;;;;;;;;;;5096245;28;20306;-64
2022/10/27 09:54:41;;;;;;;1.77;1.00;;;;;;;;;;5096008;28;20234;-65
2022/10/27 09:57:12;;;;;;;1.83;1.10;;;;;;;;;;5096656;28;20616;-64
2022/10/27 09:59:41;;;;;;;1.88;1.13;;;;;;;;;;5095994;28;20214;-65
2022/10/27 10:02:23;;;;;;;1.45;1.00;;;;;;;;;;5095146;28;20265;-65
2022/10/27 10:04:50;;;;;;;2.03;1.17;;;;;;;;;;5096577;28;20263;-64
2022/10/27 10:07:33;;;;;;;1.33;1.10;;;;;;;;;;5096220;28;20546;-65
2022/10/27 10:10:06;;;;;;;2.45;1.10;;;;;;;;;;5094523;28;20269;-65
2022/10/27 10:12:35;;;;;;;2.15;1.20;;;;;;;;;;5096466;28;20195;-64
2022/10/27 10:15:19;;;;;;;1.85;1.05;;;;;;;;;;5095000;28;20334;-64
2022/10/27 10:17:54;;;;;;;2.67;1.40;;;;;;;;;;5094776;28;20199;-65
2022/10/27 10:20:32;;;;;;;2.35;1.05;;;;;;;;;;5095641;28;20290;-65
2022/10/27 10:22:59;;;;;;;1.90;1.20;;;;;;;;;;5095987;28;20201;-64
2022/10/27 10:25:28;;;;;;;1.42;1.30;;;;;;;;;;5095340;28;20326;-64
2022/10/27 10:28:02;;;;;;;2.65;1.30;;;;;;;;;;5095434;28;20269;-64
2022/10/27 10:30:31;;;;;;;2.47;1.25;;;;;;;;;;5096379;28;20467;-64
2022/10/27 10:32:58;;;;;;;1.98;1.40;;;;;;;;;;5095636;28;20200;-63
2022/10/27 10:35:43;;;;;;;2.03;1.63;;;;;;;;;;5095004;28;20565;-63
2022/10/27 10:38:25;;;;;;;2.40;1.30;;;;;;;;;;5096133;28;20563;-64
2022/10/27 10:40:57;;;;;;;2.90;1.30;;;;;;;;;;5095672;28;20693;-64
2022/10/27 10:43:26;;;;;;;1.65;1.25;;;;;;;;;;5094379;28;20701;-64
2022/10/27 10:45:54;;;;;;;1.67;1.55;;;;;;;;;;5094734;28;20682;-64
2022/10/27 10:48:32;;;;;;;2.30;1.30;;;;;;;;;;5095539;28;20242;-64
2022/10/27 10:51:00;;;;;;;2.35;1.20;;;;;;;;;;5095910;28;20200;-64
2022/10/27 10:53:30;;;;;;;1.98;1.58;;;;;;;;;;5095428;28;20307;-63
2022/10/27 10:56:00;;;;;;;2.15;1.60;;;;;;;;;;5095325;28;20200;-64
2022/10/27 10:58:31;;;;;;;1.77;1.42;;;;;;;;;;5094858;28;20287;-64
2022/10/27 11:00:59;;;;;;;1.60;1.40;;;;;;;;;;5094944;28;20269;-64
2022/10/27 11:03:30;;;;;;;3.35;1.38;;;;;;;;;;5094692;28;20653;-64
2022/10/27 11:05:59;;;;;;;1.70;1.35;;;;;;;;;;5095163;28;20324;-64
2022/10/27 11:08:30;;;;;;;2.30;1.58;;;;;;;;;;5094024;28;20196;-64
2022/10/27 11:10:59;;;;;;;2.83;1.45;;;;;;;;;;5094504;28;20312;-65
2022/10/27 11:13:28;;;;;;;2.05;1.40;;;;;;;;;;5094351;28;20200;-64
2022/10/27 11:15:59;;;;;;;2.47;1.35;;;;;;;;;;5095643;28;20673;-64
2022/10/27 11:18:29;;;;;;;3.05;1.40;;;;;;;;;;5095125;28;20632;-64
2022/10/27 11:20:59;;;;;;;1.92;1.35;;;;;;;;;;5095199;28;20243;-64
2022/10/27 11:23:28;;;;;;;1.85;1.23;;;;;;;;;;5095056;28;20260;-64
2022/10/27 11:25:57;;;;;;;1.40;1.20;;;;;;;;;;5094693;28;20315;-64
2022/10/27 11:28:27;;;;;;;1.58;1.40;;;;;;;;;;5094688;28;20269;-64
2022/10/27 11:30:59;;;;;;;2.35;1.35;;;;;;;;;;5094517;28;20204;-64
2022/10/27 11:33:33;;;;;;;1.85;1.17;;;;;;;;;;5095889;28;20555;-64
2022/10/27 11:36:08;;;;;;;2.58;1.67;;;;;;;;;;5095685;28;20203;-63
2022/10/27 11:38:40;;;;;;;1.45;1.23;;;;;;;;;;5094506;28;20202;-63
2022/10/27 11:41:10;;;;;;;1.92;1.40;;;;;;;;;;5094811;28;20211;-64
2022/10/27 11:43:40;;;;;;;1.42;1.30;;;;;;;;;;5094054;28;20251;-64
2022/10/27 11:46:09;;;;;;;1.98;1.48;;;;;;;;;;5094229;28;20219;-64
2022/10/27 11:48:41;;;;;;;1.67;1.58;;;;;;;;;;5095249;28;20530;-64
2022/10/27 11:51:12;;;;;;;2.83;1.38;;;;;;;;;;5094402;28;20203;-64
2022/10/27 11:53:39;;;;;;;2.15;1.42;;;;;;;;;;5093841;28;20234;-64
2022/10/27 11:56:14;;;;;;;1.63;1.52;;;;;;;;;;5094403;28;20296;-64
2022/10/27 11:58:46;;;;;;;2.28;1.38;;;;;;;;;;5095357;28;20203;-64
2022/10/27 12:01:22;;;;;;;1.67;1.30;;;;;;;;;;5093983;28;20247;-64
2022/10/27 12:03:58;;;;;;;2.42;1.48;;;;;;;;;;5093508;28;20281;-64
2022/10/27 12:06:28;;;;;;;1.55;1.10;;;;;;;;;;5094085;28;20262;-64
2022/10/27 12:08:59;;;;;;;1.25;1.15;;;;;;;;;;5094330;28;20260;-64
2022/10/27 12:11:33;;;;;;;2.92;1.48;;;;;;;;;;5094538;28;20277;-65
2022/10/27 12:14:05;;;;;;;2.20;1.58;;;;;;;;;;5094032;28;20606;-64
2022/10/27 12:16:36;;;;;;;1.50;1.23;;;;;;;;;;5094213;28;20799;-64
2022/10/27 12:19:07;;;;;;;2.28;1.23;;;;;;;;;;5093646;28;20572;-64
2022/10/27 12:21:37;;;;;;;1.13;0.88;;;;;;;;;;5093315;28;20235;-63
2022/10/27 12:24:06;;;;;;;1.40;1.30;;;;;;;;;;5093190;28;20207;-64
2022/10/27 12:26:36;;;;;;;1.52;1.30;;;;;;;;;;5093465;28;20322;-64
2022/10/27 12:29:05;;;;;;;1.30;1.20;;;;;;;;;;5093490;28;20239;-64
2022/10/27 12:31:35;;;;;;;1.38;1.27;;;;;;;;;;5093919;28;20204;-64
2022/10/27 12:34:06;;;;;;;1.83;1.38;;;;;;;;;;5093521;28;20564;-64
2022/10/27 12:36:40;;;;;;;1.50;1.10;;;;;;;;;;5092937;28;20231;-64
2022/10/27 12:39:12;;;;;;;1.88;1.10;;;;;;;;;;5093672;28;20211;-63
2022/10/27 12:41:43;;;;;;;1.98;1.35;;;;;;;;;;5094103;28;20204;-64
2022/10/27 12:44:17;;;;;;;1.38;1.08;;;;;;;;;;5094059;28;20222;-64
2022/10/27 12:47:05;;;;;;;1.95;1.35;;;;;;;;;;5093538;28;20633;-64
2022/10/27 12:49:35;;;;;;;1.55;1.45;;;;;;;;;;5093722;28;20203;-65
2022/10/27 12:52:06;;;;;;;2.45;1.30;;;;;;;;;;5097036;28;20200;-64
2022/10/27 12:54:41;;;;;;;2.50;1.60;;;;;;;;;;5097907;28;20199;-63
2022/10/27 12:57:18;;;;;;;3.03;1.30;;;;;;;;;;5098031;28;20203;-64
2022/10/27 12:59:50;;;;;;;1.70;1.38;;;;;;;;;;5097199;28;20302;-64
2022/10/27 13:02:19;;;;;;;1.98;1.30;;;;;;;;;;5096993;28;20336;-64
2022/10/27 13:05:01;;;;;;;1.50;1.40;;;;;;;;;;5096284;28;20257;-63
2022/10/27 13:07:39;;;;;;;2.08;1.40;;;;;;;;;;5094651;28;20266;-63
2022/10/27 13:10:17;;;;;;;1.73;1.40;;;;;;;;;;5096359;28;20200;-64
2022/10/27 13:12:49;;;;;;;1.85;1.50;;;;;;;;;;5096941;28;20740;-64
2022/10/27 13:15:35;;;;;;;2.05;1.40;;;;;;;;;;5076596;28;20684;-63
2022/10/27 13:18:10;;;;;;;1.50;1.30;;;;;;;;;;5076488;28;20232;-63
2022/10/27 13:20:48;;;;;;;2.17;1.30;;;;;;;;;;5076984;28;20204;-64
2022/10/27 13:23:21;;;;;;;1.45;1.30;;;;;;;;;;5087426;28;20265;-63
2022/10/27 13:25:53;;;;;;;2.20;1.52;;;;;;;;;;5096376;28;20320;-63
2022/10/27 13:28:23;;;;;;;1.55;1.45;;;;;;;;;;5096058;28;20299;-64
2022/10/27 13:30:53;;;;;;;1.70;1.60;;;;;;;;;;5096355;28;20294;-63
2022/10/27 13:33:33;;;;;;;1.55;1.45;;;;;;;;;;5096093;28;20208;-64
2022/10/27 13:36:22;;;;;;;1.77;1.40;;;;;;;;;;5097130;28;20260;-63
2022/10/27 13:38:51;;;;;;;1.80;1.30;;;;;;;;;;5090863;28;20310;-63
2022/10/27 13:41:46;;;;;;;1.85;1.65;;;;;;;;;;5097580;28;20265;-64
2022/10/27 13:44:25;;;;;;;2.13;1.30;;;;;;;;;;5096469;28;20207;-64
2022/10/27 13:47:11;;;;;;;2.08;1.42;;;;;;;;;;5096851;28;20223;-64
2022/10/27 13:49:51;;;;;;;1.70;1.50;;;;;;;;;;5096764;28;20242;-63
2022/10/27 13:52:20;;;;;;;1.50;1.40;;;;;;;;;;5095411;28;20224;-64
2022/10/27 13:54:56;;;;;;;1.95;1.30;;;;;;;;;;5096291;28;20513;-63
2022/10/27 13:57:32;;;;;;;2.60;1.55;;;;;;;;;;5095626;28;20262;-64
2022/10/27 14:00:03;;;;;;;3.28;1.73;;;;;;;;;;5094932;28;20242;-63
2022/10/27 14:02:36;;;;;;;2.75;1.58;;;;;;;;;;5093949;28;20227;-64
2022/10/27 14:05:04;;;;;;;2.38;1.80;;;;;;;;;;5095676;28;20214;-64
2022/10/27 14:07:35;;;;;;;1.60;1.50;;;;;;;;;;5095083;28;20665;-64
2022/10/27 14:10:04;;;;;;;2.05;1.70;;;;;;;;;;5094738;28;20203;-64
2022/10/27 14:12:34;;;;;;;1.65;1.52;;;;;;;;;;5093713;28;20733;-64
2022/10/27 14:15:04;;;;;;;2.50;1.55;;;;;;;;;;5094146;28;20195;-64
2022/10/27 14:17:31;;;;;;;1.90;1.70;;;;;;;;;;5093964;28;20195;-64
2022/10/27 14:20:01;;;;;;;1.92;1.60;;;;;;;;;;5093977;28;20199;-64
2022/10/27 14:22:31;;;;;;;1.80;1.55;;;;;;;;;;5094481;28;20286;-64
2022/10/27 14:25:00;;;;;;;2.53;1.58;;;;;;;;;;5095628;28;20715;-64
2022/10/27 14:27:29;;;;;;;2.92;1.90;;;;;;;;;;5094168;28;20264;-64
2022/10/27 14:30:04;;;;;;;2.92;2.10;;;;;;;;;;5094951;28;20606;-63
2022/10/27 14:32:32;;;;;;;1.67;1.58;;;;;;;;;;5095080;28;20591;-64
2022/10/27 14:35:15;;;;;;;2.17;1.70;;;;;;;;;;5095044;28;20654;-64
2022/10/27 14:37:43;;;;;;;2.33;1.70;;;;;;;;;;5093444;28;20754;-64
2022/10/27 14:40:14;;;;;;;3.15;2.00;;;;;;;;;;5095084;28;20207;-63
2022/10/27 14:42:44;;;;;;;1.98;1.77;;;;;;;;;;5094810;28;20235;-63
2022/10/27 14:45:14;;;;;;;1.95;1.60;;;;;;;;;;5094371;28;20230;-64
2022/10/27 14:47:43;;;;;;;1.70;1.60;;;;;;;;;;5094353;28;20247;-64
2022/10/27 14:50:13;;;;;;;1.95;1.80;;;;;;;;;;5093944;28;20265;-63
2022/10/27 14:52:41;;;;;;;3.30;2.33;;;;;;;;;;5094222;28;20290;-64
2022/10/27 14:55:17;;;;;;;2.55;1.60;;;;;;;;;;5094898;28;20265;-63
2022/10/27 14:57:50;;;;;;;2.17;1.83;;;;;;;;;;5094278;28;20665;-64
2022/10/27 15:00:22;;;;;;;2.13;1.92;;;;;;;;;;5094681;28;20203;-65